METAR Data
IDs: Format: Raw Decoded Include TAF

Data at: 0244 UTC 12 May 2021

KBAK 120145Z 36006KT 10SM CLR 07/M17 A3033 RMK LAST
KBAK 120045Z 36006KT 10SM CLR 09/M16 A3030
KBAK 112345Z 04009KT 10SM SCT060 12/M09 A3028
KBAK 112245Z 03009KT 10SM CLR 13/00 A3027
KBAK 112045Z 36015KT 10SM CLR 14/M26 A3026
KBAK 111945Z 01015G22KT 10SM CLR 14/M26 A3027
KBAK 111845Z 01010G19KT 10SM CLR 13/M21 A1845
KBAK 111750Z 04007G16KT 10SM CLR 13/M22 A3030
KBAK 111650Z 02006KT 10SM CLR 12/M16 A3030
KBAK 111550Z 04008KT 10SM CLR 12/M14 A3030
KBAK 111450Z 02009KT 10SM SCT065 10/M01 A3030
KBAK 111350Z 04007KT 10SM BKN047 OVC060 09/M13 A3028
KBAK 111246Z 02009KT 10SM BKN065 08/M11 A3027
KBAK 111150Z 01008KT 10SM OVC065 08/M08 A3024
KBAK 111050Z 01006KT 10SM OVC065 08/M08 A3022
KBAK 110145Z 00000KT 10SM CLR 11/07 A3014 RMK LAST
KBAK 110045Z 00000KT 10SM CLR 12/05 A3013
KBAK 102345Z 00000KT 10SM CLR 13/M11 A3012
KBAK 102245Z 00000KT 10SM CLR 14/M11 A3013
KBAK 102145Z 00000KT 10SM CLR 14/M08 A3014
KBAK 102045Z 01006KT 10SM SCT050 15/M09 A3014
KBAK 101955Z 00000KT 10SM BKN050 14/M05 A3014
KBAK 101850Z 00000KT 10SM SCT150 14/M10 A3014
KBAK 101750Z 00000KT 10SM CLR 14/M14 A3015
KBAK 101650Z 10006KT 10SM CLR 13/M09 A3015
KBAK 101550Z 00000KT 10SM CLR 12/M06 A3015
KBAK 101445Z 02004KT 10SM CLR 10/02 A3016